createdAt,value
2016-05-28T00:00:05.235Z,0
2016-05-28T00:01:05.051Z,0
2016-05-28T00:02:05.007Z,0
2016-05-28T00:03:05.260Z,0
2016-05-28T00:04:18.559Z,0
2016-05-28T00:05:04.921Z,0
2016-05-28T00:06:04.893Z,0
2016-05-28T00:07:04.895Z,0
2016-05-28T00:08:04.961Z,0
2016-05-28T00:09:05.135Z,0
2016-05-28T00:10:04.903Z,0
2016-05-28T00:11:04.735Z,0
2016-05-28T00:12:04.799Z,0
2016-05-28T00:13:05.052Z,0
2016-05-28T00:14:04.899Z,0
2016-05-28T00:15:05.026Z,0
2016-05-28T00:16:04.732Z,0
2016-05-28T00:17:04.687Z,0
2016-05-28T00:18:04.706Z,0
2016-05-28T00:19:04.709Z,0
2016-05-28T00:20:04.712Z,0
2016-05-28T00:21:04.745Z,0
2016-05-28T00:22:04.436Z,0
2016-05-28T00:23:04.501Z,0
2016-05-28T00:24:04.536Z,0
2016-05-28T00:25:04.616Z,0
2016-05-28T00:26:04.540Z,0
2016-05-28T00:27:04.715Z,0
2016-05-28T00:28:04.499Z,0
2016-05-28T00:29:04.470Z,0
2016-05-28T00:30:04.411Z,0
2016-05-28T00:31:04.429Z,0
2016-05-28T00:32:04.088Z,0
2016-05-28T00:33:04.310Z,0
2016-05-28T00:34:04.171Z,0
2016-05-28T00:35:04.549Z,0
2016-05-28T00:36:04.286Z,0
2016-05-28T00:37:04.508Z,0
2016-05-28T00:38:04.385Z,0
2016-05-28T00:39:04.435Z,0
2016-05-28T00:40:04.671Z,0
2016-05-28T00:41:04.690Z,0
2016-05-28T00:42:04.880Z,0
2016-05-28T00:43:04.696Z,0
2016-05-28T00:44:04.432Z,0
2016-05-28T00:45:04.888Z,0
2016-05-28T00:46:04.298Z,0
2016-05-28T00:47:04.301Z,0
2016-05-28T00:48:04.209Z,0
2016-05-28T00:49:04.728Z,0
2016-05-28T00:50:05.214Z,0
2016-05-28T00:51:04.420Z,0
2016-05-28T00:52:04.798Z,0
2016-05-28T00:53:04.159Z,0
2016-05-28T00:54:04.787Z,0
2016-05-28T00:55:04.900Z,0
2016-05-28T00:56:03.605Z,0
2016-05-28T00:57:04.640Z,0
2016-05-28T00:58:04.611Z,0
2016-05-28T00:59:03.847Z,0
2016-05-28T01:00:03.804Z,0
2016-05-28T01:01:04.541Z,0
2016-05-28T01:02:05.512Z,0
2016-05-28T01:03:04.546Z,0
2016-05-28T01:04:04.721Z,0
2016-05-28T01:05:04.442Z,0
2016-05-28T01:06:04.413Z,0
2016-05-28T01:07:04.260Z,0
2016-05-28T01:08:04.294Z,0
2016-05-28T01:09:04.157Z,0
2016-05-28T01:10:03.456Z,0
2016-05-28T01:11:03.832Z,0
2016-05-28T01:12:03.289Z,0
2016-05-28T01:13:03.807Z,0
2016-05-28T01:14:03.466Z,0
2016-05-28T01:15:03.687Z,0
2016-05-28T01:16:03.535Z,0
2016-05-28T01:17:03.474Z,0
2016-05-28T01:18:03.477Z,0
2016-05-28T01:19:03.683Z,0
2016-05-28T01:20:04.248Z,0
2016-05-28T01:21:03.735Z,0
2016-05-28T01:22:03.691Z,0
2016-05-28T01:23:03.490Z,0
2016-05-28T01:24:03.306Z,0
2016-05-28T01:25:03.292Z,0
2016-05-28T01:26:03.717Z,0
2016-05-28T01:27:03.985Z,0
2016-05-28T01:28:03.286Z,0
2016-05-28T01:29:02.961Z,0
2016-05-28T01:30:03.306Z,0
2016-05-28T01:31:03.528Z,0
2016-05-28T01:32:03.311Z,0
2016-05-28T01:33:03.611Z,0
2016-05-28T01:34:03.333Z,0
2016-05-28T01:35:03.726Z,0
2016-05-28T01:36:03.182Z,0
2016-05-28T01:37:03.169Z,0
2016-05-28T01:38:03.296Z,0
2016-05-28T01:39:03.330Z,0
2016-05-28T01:40:03.176Z,0
2016-05-28T01:41:03.024Z,0
2016-05-28T01:42:03.245Z,0
2016-05-28T01:43:03.435Z,0
2016-05-28T01:44:03.063Z,0
2016-05-28T01:45:03.003Z,0
2016-05-28T01:46:02.802Z,0
2016-05-28T01:47:16.712Z,0
2016-05-28T01:48:02.823Z,0
2016-05-28T01:49:02.857Z,0
2016-05-28T01:50:02.845Z,0
2016-05-28T01:51:03.144Z,0
2016-05-28T01:52:02.865Z,0
2016-05-28T01:53:03.086Z,0
2016-05-28T01:54:02.839Z,0
2016-05-28T01:55:02.826Z,0
2016-05-28T01:56:02.767Z,0
2016-05-28T01:57:02.864Z,0
2016-05-28T01:58:02.709Z,0
2016-05-28T01:59:02.650Z,0
2016-05-28T02:00:02.840Z,0
2016-05-28T02:01:02.686Z,0
2016-05-28T02:02:02.392Z,0
2016-05-28T02:03:02.926Z,0
2016-05-28T02:04:02.679Z,0
2016-05-28T02:05:03.603Z,0
2016-05-28T02:06:02.528Z,0
2016-05-28T02:07:02.828Z,0
2016-05-28T02:08:03.299Z,0
2016-05-28T02:09:03.036Z,0
2016-05-28T02:10:02.399Z,0
2016-05-28T02:11:02.308Z,0
2016-05-28T02:12:02.326Z,0
2016-05-28T02:13:02.593Z,0
2016-05-28T02:14:02.299Z,0
2016-05-28T02:15:02.662Z,0
2016-05-28T02:16:02.165Z,0
2016-05-28T02:17:02.292Z,0
2016-05-28T02:18:02.279Z,0
2016-05-28T02:19:02.625Z,0
2016-05-28T02:20:02.504Z,0
2016-05-28T02:21:03.350Z,0
2016-05-28T02:22:03.180Z,0
2016-05-28T02:23:03.621Z,0
2016-05-28T02:24:02.592Z,0
2016-05-28T02:25:03.220Z,0
2016-05-28T02:26:03.317Z,0
2016-05-28T02:27:02.819Z,0
2016-05-28T02:28:02.119Z,0
2016-05-28T02:29:03.231Z,0
2016-05-28T02:30:03.655Z,0
2016-05-28T02:31:02.252Z,0
2016-05-28T02:32:02.942Z,0
2016-05-28T02:33:03.522Z,0
2016-05-28T02:34:03.088Z,0
2016-05-28T02:35:03.199Z,0
2016-05-28T02:36:02.186Z,0
2016-05-28T02:37:02.769Z,0
2016-05-28T02:38:02.567Z,0
2016-05-28T02:39:02.477Z,0
2016-05-28T02:40:02.666Z,0
2016-05-28T02:41:03.529Z,0
2016-05-28T02:42:02.827Z,0
2016-05-28T02:43:02.238Z,0
2016-05-28T02:44:02.146Z,0
2016-05-28T02:45:01.804Z,0
2016-05-28T02:46:02.214Z,0
2016-05-28T02:47:04.201Z,0
2016-05-28T02:48:01.532Z,0
2016-05-28T02:49:02.784Z,0
2016-05-28T02:50:02.974Z,0
2016-05-28T02:51:01.993Z,0
2016-05-28T02:52:02.230Z,0
2016-05-28T02:53:01.999Z,0
2016-05-28T02:54:02.203Z,0
2016-05-28T02:55:02.222Z,0
2016-05-28T02:56:01.772Z,0
2016-05-28T02:57:03.322Z,0
2016-05-28T02:58:00.964Z,0
2016-05-28T02:59:01.280Z,0
2016-05-28T03:00:01.298Z,0
2016-05-28T03:01:01.753Z,0
2016-05-28T03:02:01.867Z,0
2016-05-28T03:03:01.525Z,0
2016-05-28T03:04:01.231Z,0
2016-05-28T03:05:02.952Z,0
2016-05-28T03:06:01.767Z,0
2016-05-28T03:07:01.488Z,0
2016-05-28T03:08:01.664Z,0
2016-05-28T03:09:01.510Z,0
2016-05-28T03:10:01.247Z,0
2016-05-28T03:11:01.766Z,0
2016-05-28T03:12:01.019Z,0
2016-05-28T03:13:01.146Z,0
2016-05-28T03:14:01.430Z,0
2016-05-28T03:15:00.963Z,0
2016-05-28T03:16:00.998Z,0
2016-05-28T03:17:00.859Z,0
2016-05-28T03:18:00.785Z,0
2016-05-28T03:19:00.787Z,0
2016-05-28T03:20:00.930Z,0
2016-05-28T03:21:01.026Z,0
2016-05-28T03:22:00.670Z,0
2016-05-28T03:23:00.720Z,0
2016-05-28T03:24:00.691Z,0
2016-05-28T03:25:01.006Z,0
2016-05-28T03:26:00.900Z,0
2016-05-28T03:27:00.573Z,0
2016-05-28T03:28:00.436Z,0
2016-05-28T03:29:00.579Z,0
2016-05-28T03:30:00.567Z,0
2016-05-28T03:31:00.538Z,0
2016-05-28T03:32:00.806Z,0
2016-05-28T03:33:00.731Z,0
2016-05-28T03:34:00.499Z,0
2016-05-28T03:35:00.595Z,0
2016-05-28T03:36:00.286Z,0
2016-05-28T03:37:00.397Z,0
2016-05-28T03:38:00.385Z,0
2016-05-28T03:39:00.699Z,0
2016-05-28T03:40:00.343Z,0
2016-05-28T03:41:00.112Z,0
2016-05-28T03:42:00.318Z,0
2016-05-28T03:43:00.241Z,0
2016-05-28T03:44:00.495Z,0
2016-05-28T03:45:00.669Z,0
2016-05-28T03:46:00.235Z,0
2016-05-28T03:47:00.190Z,0
2016-05-28T03:48:00.490Z,0
2016-05-28T03:49:00.180Z,0
2016-05-28T03:50:00.668Z,0
2016-05-28T03:51:00.357Z,0
2016-05-28T03:52:00.110Z,0
2016-05-28T03:53:00.113Z,0
2016-05-28T03:53:59.835Z,0
2016-05-28T03:54:59.821Z,0
2016-05-28T03:56:00.183Z,0
2016-05-28T03:57:00.264Z,0
2016-05-28T03:57:59.798Z,0
2016-05-28T03:58:59.988Z,0
2016-05-28T03:59:59.631Z,0
2016-05-28T04:01:00.119Z,0
2016-05-28T04:01:59.809Z,0
2016-05-28T04:03:00.328Z,0
2016-05-28T04:03:59.877Z,0
2016-05-28T04:05:00.098Z,0
2016-05-28T04:05:59.820Z,0
2016-05-28T04:06:59.760Z,0
2016-05-28T04:08:00.105Z,0
2016-05-28T04:08:59.672Z,0
2016-05-28T04:09:59.736Z,0
2016-05-28T04:10:59.536Z,0
2016-05-28T04:11:59.633Z,0
2016-05-28T04:12:59.604Z,0
2016-05-28T04:13:59.841Z,0
2016-05-28T04:14:59.969Z,0
2016-05-28T04:15:59.566Z,0
2016-05-28T04:16:59.505Z,0
2016-05-28T04:17:59.446Z,0
2016-05-28T04:18:59.355Z,0
2016-05-28T04:19:59.670Z,0
2016-05-28T04:20:59.891Z,0
2016-05-28T04:21:59.425Z,0
2016-05-28T04:22:59.256Z,0
2016-05-28T04:23:59.290Z,0
2016-05-28T04:24:59.355Z,0
2016-05-28T04:25:59.467Z,0
2016-05-28T04:26:59.470Z,0
2016-05-28T04:27:59.331Z,0
2016-05-28T04:28:59.162Z,0
2016-05-28T04:29:59.243Z,0
2016-05-28T04:30:59.324Z,0
2016-05-28T04:31:59.467Z,0
2016-05-28T04:32:59.189Z,0
2016-05-28T04:33:58.878Z,0
2016-05-28T04:34:59.600Z,0
2016-05-28T04:35:59.072Z,0
2016-05-28T04:36:59.059Z,0
2016-05-28T04:37:59.328Z,0
2016-05-28T04:38:59.330Z,0
2016-05-28T04:39:59.052Z,0
2016-05-28T04:40:59.180Z,0
2016-05-28T04:41:58.838Z,0
2016-05-28T04:42:59.091Z,0
2016-05-28T04:43:59.188Z,0
2016-05-28T04:44:59.253Z,0
2016-05-28T04:45:59.099Z,0
2016-05-28T04:46:58.805Z,0
2016-05-28T04:47:58.808Z,0
2016-05-28T04:48:58.857Z,0
2016-05-28T04:49:59.141Z,0
2016-05-28T04:50:58.800Z,0
2016-05-28T04:51:58.631Z,0
2016-05-28T04:52:58.555Z,0
2016-05-28T04:53:58.621Z,0
2016-05-28T04:54:58.764Z,0
2016-05-28T04:55:59.032Z,0
2016-05-28T04:56:59.159Z,0
2016-05-28T04:57:58.506Z,0
2016-05-28T04:58:58.696Z,0
2016-05-28T04:59:58.637Z,0
2016-05-28T05:00:58.655Z,0
2016-05-28T05:01:59.079Z,0
2016-05-28T05:02:59.129Z,0
2016-05-28T05:03:58.491Z,0
2016-05-28T05:04:58.322Z,0
2016-05-28T05:05:58.574Z,0
2016-05-28T05:06:58.467Z,0
2016-05-28T05:07:58.340Z,0
2016-05-28T05:08:58.898Z,0
2016-05-28T05:09:57.831Z,0
2016-05-28T05:10:58.561Z,0
2016-05-28T05:11:58.526Z,0
2016-05-28T05:12:58.720Z,0
2016-05-28T05:13:58.404Z,0
2016-05-28T05:14:58.508Z,0
2016-05-28T05:15:58.410Z,0
2016-05-28T05:16:58.235Z,0
2016-05-28T05:17:58.510Z,0
2016-05-28T05:18:58.203Z,0
2016-05-28T05:19:58.895Z,0
2016-05-28T05:20:58.730Z,0
2016-05-28T05:21:58.877Z,0
2016-05-28T05:22:59.428Z,0
2016-05-28T05:23:59.245Z,0
2016-05-28T05:25:11.858Z,0
2016-05-28T05:25:58.846Z,0
2016-05-28T05:26:59.491Z,0
2016-05-28T05:28:11.947Z,0
2016-05-28T05:29:11.965Z,0
2016-05-28T05:29:59.218Z,0
2016-05-28T05:30:58.644Z,0
2016-05-28T05:31:58.788Z,5
2016-05-28T05:32:59.291Z,5
2016-05-28T05:33:58.621Z,5
2016-05-28T05:34:58.795Z,5
2016-05-28T05:35:58.424Z,5
2016-05-28T05:36:58.942Z,5
2016-05-28T05:37:58.460Z,5
2016-05-28T05:38:59.478Z,5
2016-05-28T05:39:58.684Z,5
2016-05-28T05:40:58.968Z,5
2016-05-28T05:41:58.612Z,5
2016-05-28T05:42:59.848Z,5
2016-05-28T05:43:57.848Z,5
2016-05-28T05:44:58.148Z,5
2016-05-28T05:45:58.685Z,5
2016-05-28T05:46:58.170Z,5
2016-05-28T05:47:58.062Z,5
2016-05-28T05:48:58.475Z,5
2016-05-28T05:50:12.070Z,5
2016-05-28T05:50:58.352Z,5
2016-05-28T05:51:58.026Z,5
2016-05-28T05:52:58.139Z,5
2016-05-28T05:53:58.094Z,5
2016-05-28T05:54:57.816Z,5
2016-05-28T05:55:57.740Z,5
2016-05-28T05:56:58.933Z,5
2016-05-28T05:57:58.074Z,5
2016-05-28T05:58:57.967Z,5
2016-05-28T05:59:57.783Z,5
2016-05-28T06:00:57.941Z,5
2016-05-28T06:01:58.069Z,5
2016-05-28T06:02:58.009Z,5
2016-05-28T06:03:57.825Z,5
2016-05-28T06:04:58.296Z,5
2016-05-28T06:05:58.895Z,5
2016-05-28T06:06:57.895Z,5
2016-05-28T06:07:57.803Z,5
2016-05-28T06:08:58.087Z,5
2016-05-28T06:09:57.919Z,5
2016-05-28T06:10:57.952Z,5
2016-05-28T06:11:58.298Z,5
2016-05-28T06:12:57.754Z,5
2016-05-28T06:13:58.148Z,5
2016-05-28T06:14:58.417Z,5
2016-05-28T06:15:57.794Z,5
2016-05-28T06:16:57.703Z,5
2016-05-28T06:17:57.487Z,5
2016-05-28T06:18:57.740Z,5
2016-05-28T06:19:58.164Z,5
2016-05-28T06:20:58.183Z,5
2016-05-28T06:21:57.764Z,5
2016-05-28T06:22:57.547Z,5
2016-05-28T06:23:58.050Z,5
2016-05-28T06:24:57.147Z,5
2016-05-28T06:25:56.992Z,5
2016-05-28T06:26:57.386Z,5
2016-05-28T06:27:57.014Z,5
2016-05-28T06:28:57.079Z,5
2016-05-28T06:29:57.238Z,5
2016-05-28T06:30:57.053Z,5
2016-05-28T06:31:56.805Z,5
2016-05-28T06:32:57.902Z,5
2016-05-28T06:33:56.624Z,5
2016-05-28T06:34:58.830Z,5
2016-05-28T06:35:56.754Z,5
2016-05-28T06:36:56.694Z,5
2016-05-28T06:37:56.696Z,5
2016-05-28T06:38:57.043Z,5
2016-05-28T06:39:56.702Z,5
2016-05-28T06:40:56.330Z,5
2016-05-28T06:41:56.535Z,5
2016-05-28T06:42:57.195Z,5
2016-05-28T06:43:56.573Z,5
2016-05-28T06:44:56.622Z,10
2016-05-28T06:45:56.546Z,10
2016-05-28T06:46:56.392Z,10
2016-05-28T06:47:56.787Z,10
2016-05-28T06:48:56.351Z,10
2016-05-28T06:49:56.589Z,5
2016-05-28T06:50:56.403Z,10
2016-05-28T06:51:56.453Z,5
2016-05-28T06:52:56.472Z,5
2016-05-28T06:53:56.302Z,10
2016-05-28T06:54:56.243Z,10
2016-05-28T06:55:56.167Z,10
2016-05-28T06:56:56.669Z,10
2016-05-28T06:57:56.314Z,10
2016-05-28T06:58:56.098Z,10
2016-05-28T06:59:56.491Z,10
2016-05-28T07:00:56.274Z,10
2016-05-28T07:01:56.293Z,10
2016-05-28T07:02:56.311Z,10
2016-05-28T07:03:55.844Z,10
2016-05-28T07:04:56.535Z,10
2016-05-28T07:05:56.429Z,10
2016-05-28T07:06:55.837Z,10
2016-05-28T07:07:56.527Z,10
2016-05-28T07:08:56.312Z,10
2016-05-28T07:09:56.065Z,10
2016-05-28T07:10:56.035Z,10
2016-05-28T07:11:56.241Z,10
2016-05-28T07:12:55.853Z,10
2016-05-28T07:13:55.996Z,10
2016-05-28T07:14:56.187Z,10
2016-05-28T07:15:55.923Z,10
2016-05-28T07:16:55.896Z,10
2016-05-28T07:17:56.007Z,10
2016-05-28T07:18:55.714Z,10
2016-05-28T07:19:56.153Z,10
2016-05-28T07:20:56.047Z,10
2016-05-28T07:21:55.908Z,10
2016-05-28T07:22:55.725Z,10
2016-05-28T07:23:55.914Z,10
2016-05-28T07:24:55.761Z,10
2016-05-28T07:25:55.748Z,10
2016-05-28T07:26:56.094Z,10
2016-05-28T07:27:56.081Z,10
2016-05-28T07:28:55.693Z,10
2016-05-28T07:29:55.806Z,10
2016-05-28T07:30:55.699Z,10
2016-05-28T07:31:55.591Z,10
2016-05-28T07:32:55.923Z,10
2016-05-28T07:33:55.426Z,10
2016-05-28T07:34:56.053Z,10
2016-05-28T07:35:55.790Z,10
2016-05-28T07:36:56.621Z,10
2016-05-28T07:37:55.811Z,10
2016-05-28T07:38:56.282Z,15
2016-05-28T07:39:55.613Z,15
2016-05-28T07:40:55.023Z,15
2016-05-28T07:42:09.153Z,15
2016-05-28T07:42:55.746Z,15
2016-05-28T07:43:55.827Z,15
2016-05-28T07:44:55.799Z,15
2016-05-28T07:45:55.301Z,15
2016-05-28T07:46:55.398Z,15
2016-05-28T07:47:55.134Z,15
2016-05-28T07:48:55.700Z,15
2016-05-28T07:49:55.406Z,15
2016-05-28T07:50:55.471Z,15
2016-05-28T07:51:55.255Z,15
2016-05-28T07:52:55.242Z,15
2016-05-28T07:53:55.745Z,15
2016-05-28T07:54:56.575Z,15
2016-05-28T07:55:55.125Z,15
2016-05-28T07:56:55.331Z,15
2016-05-28T07:57:55.147Z,15
2016-05-28T07:58:55.212Z,15
2016-05-28T07:59:55.167Z,15
2016-05-28T08:00:55.122Z,15
2016-05-28T08:01:55.017Z,15
2016-05-28T08:02:55.238Z,15
2016-05-28T08:03:55.022Z,15
2016-05-28T08:04:55.305Z,15
2016-05-28T08:05:54.918Z,15
2016-05-28T08:06:55.311Z,15
2016-05-28T08:07:55.001Z,15
2016-05-28T08:08:54.738Z,15
2016-05-28T08:09:55.272Z,15
2016-05-28T08:10:54.650Z,15
2016-05-28T08:11:54.668Z,15
2016-05-28T08:12:57.718Z,15
2016-05-28T08:13:54.471Z,15
2016-05-28T08:14:54.864Z,15
2016-05-28T08:15:54.663Z,15
2016-05-28T08:16:55.057Z,10
2016-05-28T08:17:55.059Z,15
2016-05-28T08:18:55.656Z,10
2016-05-28T08:19:54.659Z,15
2016-05-28T08:20:54.801Z,15
2016-05-28T08:21:54.509Z,15
2016-05-28T08:22:54.917Z,15
2016-05-28T08:23:54.528Z,15
2016-05-28T08:24:54.687Z,15
2016-05-28T08:25:54.519Z,15
2016-05-28T08:26:54.708Z,15
2016-05-28T08:27:54.509Z,15
2016-05-28T08:28:54.542Z,15
2016-05-28T08:29:54.467Z,15
2016-05-28T08:30:54.798Z,15
2016-05-28T08:31:54.363Z,15
2016-05-28T08:32:55.084Z,15
2016-05-28T08:33:54.243Z,15
2016-05-28T08:34:54.636Z,15
2016-05-28T08:35:54.249Z,15
2016-05-28T08:36:54.532Z,15
2016-05-28T08:37:54.676Z,15
2016-05-28T08:38:55.975Z,15
2016-05-28T08:39:54.041Z,15
2016-05-28T08:40:54.231Z,15
2016-05-28T08:41:54.077Z,15
2016-05-28T08:42:54.408Z,15
2016-05-28T08:43:54.067Z,15
2016-05-28T08:44:54.429Z,15
2016-05-28T08:45:54.041Z,15
2016-05-28T08:46:54.107Z,15
2016-05-28T08:47:54.046Z,15
2016-05-28T08:48:54.315Z,15
2016-05-28T08:49:54.130Z,15
2016-05-28T08:50:54.290Z,15
2016-05-28T08:51:53.995Z,15
2016-05-28T08:52:54.528Z,15
2016-05-28T08:53:54.095Z,15
2016-05-28T08:54:54.081Z,15
2016-05-28T08:55:54.334Z,15
2016-05-28T08:56:53.993Z,15
2016-05-28T08:57:53.917Z,15
2016-05-28T08:58:53.888Z,15
2016-05-28T08:59:53.938Z,15
2016-05-28T09:00:53.941Z,15
2016-05-28T09:01:53.897Z,15
2016-05-28T09:02:54.133Z,15
2016-05-28T09:03:53.590Z,15
2016-05-28T09:04:53.327Z,15
2016-05-28T09:05:54.033Z,15
2016-05-28T09:06:53.675Z,15
2016-05-28T09:07:53.960Z,15
2016-05-28T09:08:53.977Z,15
2016-05-28T09:09:53.699Z,15
2016-05-28T09:10:53.452Z,15
2016-05-28T09:11:54.752Z,15
2016-05-28T09:12:53.832Z,15
2016-05-28T09:13:53.507Z,15
2016-05-28T09:14:53.651Z,15
2016-05-28T09:15:53.638Z,15
2016-05-28T09:16:53.531Z,15
2016-05-28T09:17:53.471Z,15
2016-05-28T09:18:53.505Z,15
2016-05-28T09:19:55.492Z,15
2016-05-28T09:20:53.635Z,15
2016-05-28T09:21:53.247Z,15
2016-05-28T09:22:53.407Z,15
2016-05-28T09:23:53.143Z,15
2016-05-28T09:24:54.146Z,15
2016-05-28T09:25:53.306Z,15
2016-05-28T09:26:53.543Z,15
2016-05-28T09:27:53.326Z,15
2016-05-28T09:28:53.578Z,15
2016-05-28T09:29:52.956Z,15
2016-05-28T09:30:53.397Z,15
2016-05-28T09:31:53.009Z,15
2016-05-28T09:32:53.465Z,15
2016-05-28T09:33:52.888Z,15
2016-05-28T09:34:53.485Z,20
2016-05-28T09:35:53.316Z,20
2016-05-28T09:36:54.038Z,20
2016-05-28T09:37:53.305Z,15
2016-05-28T09:38:53.418Z,15
2016-05-28T09:39:53.218Z,15
2016-05-28T09:40:53.032Z,15
2016-05-28T09:41:52.880Z,20
2016-05-28T09:42:53.538Z,20
2016-05-28T09:43:52.916Z,20
2016-05-28T09:44:52.949Z,20
2016-05-28T09:45:52.999Z,20
2016-05-28T09:46:52.752Z,20
2016-05-28T09:47:52.833Z,20
2016-05-28T09:48:53.211Z,15
2016-05-28T09:49:52.745Z,15
2016-05-28T09:50:52.981Z,15
2016-05-28T09:51:57.140Z,15
2016-05-28T09:52:54.940Z,15
2016-05-28T09:53:52.708Z,10
2016-05-28T09:54:52.883Z,10
2016-05-28T09:55:53.573Z,10
2016-05-28T09:56:58.810Z,10
2016-05-28T09:57:52.703Z,10
2016-05-28T09:58:55.519Z,10
2016-05-28T09:59:55.506Z,10
2016-05-28T10:00:52.634Z,15
2016-05-28T10:01:55.730Z,15
2016-05-28T10:02:52.732Z,10
2016-05-28T10:03:52.672Z,10
2016-05-28T10:04:53.332Z,10
2016-05-28T10:05:52.553Z,10
2016-05-28T10:06:58.555Z,15
2016-05-28T10:08:06.340Z,15
2016-05-28T10:08:52.967Z,15
2016-05-28T10:09:52.767Z,15
2016-05-28T10:11:06.067Z,20
2016-05-28T10:11:52.242Z,15
2016-05-28T10:12:53.135Z,15
2016-05-28T10:13:52.465Z,10
2016-05-28T10:14:52.952Z,10
2016-05-28T10:15:52.205Z,10
2016-05-28T10:16:57.849Z,10
2016-05-28T10:17:53.071Z,15
2016-05-28T10:18:52.916Z,15
2016-05-28T10:19:53.451Z,15
2016-05-28T10:20:52.999Z,15
2016-05-28T10:21:56.331Z,10
2016-05-28T10:22:52.677Z,10
2016-05-28T10:23:52.212Z,15
2016-05-28T10:24:52.901Z,15
2016-05-28T10:25:52.528Z,15
2016-05-28T10:26:56.673Z,15
2016-05-28T10:27:52.253Z,15
2016-05-28T10:28:52.146Z,15
2016-05-28T10:29:52.461Z,15
2016-05-28T10:30:52.886Z,15
2016-05-28T10:31:55.404Z,15
2016-05-28T10:32:52.220Z,15
2016-05-28T10:33:51.941Z,15
2016-05-28T10:34:52.037Z,15
2016-05-28T10:35:52.290Z,20
2016-05-28T10:37:05.917Z,25
2016-05-28T10:37:52.749Z,25
2016-05-28T10:38:52.735Z,25
2016-05-28T10:39:52.175Z,25
2016-05-28T10:40:52.100Z,25
2016-05-28T10:41:54.916Z,25
2016-05-28T10:42:53.277Z,25
2016-05-28T10:43:52.061Z,25
2016-05-28T10:44:52.893Z,25
2016-05-28T10:45:51.973Z,25
2016-05-28T10:46:52.163Z,25
2016-05-28T10:48:05.526Z,30
2016-05-28T10:48:52.028Z,30
2016-05-28T10:49:53.124Z,25
2016-05-28T10:50:54.768Z,20
2016-05-28T10:51:51.912Z,20
2016-05-28T10:52:52.335Z,20
2016-05-28T10:53:51.479Z,25
2016-05-28T10:54:51.701Z,25
2016-05-28T10:55:53.126Z,25
2016-05-28T10:56:52.268Z,30
2016-05-28T10:58:05.756Z,30
2016-05-28T10:58:51.821Z,30
2016-05-28T11:00:07.198Z,30
2016-05-28T11:00:51.920Z,30
2016-05-28T11:01:51.750Z,35
2016-05-28T11:02:51.942Z,30
2016-05-28T11:03:52.022Z,25
2016-05-28T11:04:56.322Z,25
2016-05-28T11:06:05.214Z,25
2016-05-28T11:07:06.811Z,20
2016-05-28T11:08:05.626Z,20
2016-05-28T11:08:51.894Z,15
2016-05-28T11:09:51.225Z,15
2016-05-28T11:10:51.447Z,15
2016-05-28T11:11:51.793Z,20
2016-05-28T11:12:51.233Z,20
2016-05-28T11:13:52.549Z,15
2016-05-28T11:14:51.599Z,20
2016-05-28T11:15:53.257Z,20
2016-05-28T11:16:51.369Z,25
2016-05-28T11:17:50.560Z,30
2016-05-28T11:18:51.594Z,30
2016-05-28T11:20:06.158Z,25
2016-05-28T11:21:04.958Z,25
2016-05-28T11:21:51.336Z,25
2016-05-28T11:22:51.730Z,25
2016-05-28T11:23:52.793Z,25
2016-05-28T11:24:51.984Z,35
2016-05-28T11:25:52.456Z,40
2016-05-28T11:26:51.802Z,35
2016-05-28T11:28:05.601Z,35
2016-05-28T11:28:52.026Z,30
2016-05-28T11:29:51.857Z,30
2016-05-28T11:31:05.063Z,30
2016-05-28T11:31:51.159Z,30
2016-05-28T11:32:51.178Z,30
2016-05-28T11:33:50.681Z,30
2016-05-28T11:34:52.168Z,35
2016-05-28T11:35:50.998Z,35
2016-05-28T11:36:51.610Z,30
2016-05-28T11:37:53.331Z,35
2016-05-28T11:38:51.538Z,40
2016-05-28T11:39:51.103Z,40
2016-05-28T11:40:52.339Z,35
2016-05-28T11:41:51.843Z,35
2016-05-28T11:42:51.877Z,35
2016-05-28T11:44:05.426Z,35
2016-05-28T11:44:51.647Z,35
2016-05-28T11:45:51.010Z,35
2016-05-28T11:46:51.903Z,40
2016-05-28T11:47:51.797Z,40
2016-05-28T11:48:53.252Z,40
2016-05-28T11:49:53.176Z,90
2016-05-28T11:50:51.524Z,240
2016-05-28T11:51:51.166Z,315
2016-05-28T11:52:52.232Z,305
2016-05-28T11:53:51.499Z,300
2016-05-28T11:54:51.799Z,290
2016-05-28T11:55:51.724Z,215
2016-05-28T11:56:50.633Z,160
2016-05-28T11:58:08.854Z,115
2016-05-28T11:58:51.138Z,105
2016-05-28T11:59:51.500Z,80
2016-05-28T12:00:50.832Z,85
2016-05-28T12:01:50.959Z,100
2016-05-28T12:02:52.978Z,90
2016-05-28T12:03:53.292Z,70
2016-05-28T12:04:50.874Z,35
2016-05-28T12:05:52.751Z,45
2016-05-28T12:06:52.691Z,70
2016-05-28T12:07:54.335Z,120
2016-05-28T12:09:04.305Z,185
2016-05-28T12:09:50.465Z,210
2016-05-28T12:10:50.937Z,40
2016-05-28T12:11:50.298Z,40
2016-05-28T12:12:52.050Z,150
2016-05-28T12:13:50.929Z,240
2016-05-28T12:14:50.994Z,210
2016-05-28T12:16:04.075Z,115
2016-05-28T12:16:50.765Z,45
2016-05-28T12:17:52.846Z,40
2016-05-28T12:18:50.552Z,40
2016-05-28T12:19:51.336Z,40
2016-05-28T12:20:50.447Z,50
2016-05-28T12:21:50.638Z,55
2016-05-28T12:22:54.562Z,50
2016-05-28T12:24:05.018Z,50
2016-05-28T12:24:50.505Z,50
2016-05-28T12:25:50.571Z,45
2016-05-28T12:26:50.604Z,50
2016-05-28T12:27:53.154Z,45
2016-05-28T12:28:50.765Z,45
2016-05-28T12:30:04.254Z,50
2016-05-28T12:30:50.287Z,45
2016-05-28T12:31:50.320Z,35
2016-05-28T12:32:53.292Z,40
2016-05-28T12:33:51.607Z,40
2016-05-28T12:34:51.157Z,40
2016-05-28T12:35:50.284Z,40
2016-05-28T12:36:50.241Z,40
2016-05-28T12:37:54.259Z,40
2016-05-28T12:38:51.137Z,40
2016-05-28T12:39:51.312Z,35
2016-05-28T12:40:50.939Z,35
2016-05-28T12:42:53.991Z,35
2016-05-28T12:43:50.213Z,40
2016-05-28T12:44:53.075Z,40
2016-05-28T12:45:50.905Z,45
2016-05-28T12:46:50.909Z,45
2016-05-28T12:47:50.020Z,45
2016-05-28T12:48:50.085Z,50
2016-05-28T12:49:50.432Z,50
2016-05-28T12:50:50.700Z,50
2016-05-28T12:51:49.859Z,80
2016-05-28T12:52:50.705Z,160
2016-05-28T12:53:53.208Z,40
2016-05-28T12:54:50.882Z,40
2016-05-28T12:55:54.229Z,120
2016-05-28T12:56:50.107Z,40
2016-05-28T12:57:50.468Z,35
2016-05-28T12:58:49.909Z,25
2016-05-28T12:59:49.803Z,35
2016-05-28T13:00:49.993Z,55
2016-05-28T13:01:50.448Z,55
2016-05-28T13:02:50.624Z,50
2016-05-28T13:03:50.173Z,60
2016-05-28T13:04:50.504Z,45
2016-05-28T13:05:50.381Z,60
2016-05-28T13:06:50.587Z,85
2016-05-28T13:07:52.731Z,45
2016-05-28T13:08:49.265Z,50
2016-05-28T13:09:51.439Z,45
2016-05-28T13:10:49.691Z,45
2016-05-28T13:11:49.444Z,45
2016-05-28T13:12:49.853Z,45
2016-05-28T13:18:40.057Z,70
2016-05-28T13:19:00.010Z,70
2016-05-28T13:20:13.887Z,105
2016-05-28T13:20:59.594Z,210
2016-05-28T13:22:00.471Z,185
2016-05-28T13:23:58.696Z,215
2016-05-28T13:25:00.776Z,330
2016-05-28T13:26:12.779Z,515
2016-05-28T13:26:59.516Z,310
2016-05-28T13:27:59.706Z,270
2016-05-28T13:29:12.725Z,155
2016-05-28T13:30:26.496Z,75
2016-05-28T13:31:12.480Z,65
2016-05-28T13:32:14.013Z,60
2016-05-28T13:32:58.876Z,65
2016-05-28T13:33:58.394Z,60
2016-05-28T13:34:58.788Z,50
2016-05-28T13:36:13.337Z,55
2016-05-28T13:36:58.777Z,55
2016-05-28T13:37:59.546Z,75
2016-05-28T13:39:12.704Z,80
2016-05-28T13:40:12.910Z,70
2016-05-28T13:41:13.272Z,45
2016-05-28T13:42:00.712Z,70
2016-05-28T13:43:12.559Z,65
2016-05-28T13:44:00.546Z,85
2016-05-28T13:44:59.236Z,105
2016-05-28T13:45:58.473Z,115
2016-05-28T13:46:58.600Z,130
2016-05-28T13:47:58.994Z,90
2016-05-28T13:48:58.591Z,145
2016-05-28T13:49:58.780Z,65
2016-05-28T13:50:58.409Z,105
2016-05-28T13:52:25.774Z,90
2016-05-28T13:52:59.820Z,95
2016-05-28T13:53:59.088Z,105
2016-05-28T13:54:59.185Z,75
2016-05-28T13:55:58.688Z,125
2016-05-28T13:56:58.456Z,130
2016-05-28T13:58:12.037Z,180
2016-05-28T13:59:01.946Z,215
2016-05-28T13:59:58.354Z,190
2016-05-28T14:00:59.076Z,145
2016-05-28T14:02:12.329Z,135
2016-05-28T14:04:11.756Z,135
2016-05-28T14:04:58.977Z,125
2016-05-28T14:05:58.543Z,95
2016-05-28T14:06:58.170Z,60
2016-05-28T14:07:58.345Z,60
2016-05-28T14:08:58.176Z,55
2016-05-28T14:09:58.523Z,45
2016-05-28T14:10:59.712Z,40
2016-05-28T14:11:59.777Z,40
2016-05-28T14:12:58.265Z,35
2016-05-28T14:14:58.348Z,30
2016-05-28T14:15:58.389Z,50
2016-05-28T14:16:58.806Z,70
2016-05-28T14:17:59.911Z,65
2016-05-28T14:18:58.203Z,35
2016-05-28T14:19:58.845Z,45
2016-05-28T14:21:25.619Z,45
2016-05-28T14:22:11.759Z,30
2016-05-28T14:22:59.052Z,30
2016-05-28T14:24:25.758Z,65
2016-05-28T14:24:58.289Z,60
2016-05-28T14:25:59.014Z,45
2016-05-28T14:26:58.318Z,40
2016-05-28T14:28:25.563Z,45
2016-05-28T14:28:57.969Z,40
2016-05-28T14:29:58.818Z,45
2016-05-28T14:30:58.040Z,45
2016-05-28T14:31:58.575Z,45
2016-05-28T14:33:12.032Z,40
2016-05-28T14:33:58.379Z,45
2016-05-28T14:35:11.946Z,45
2016-05-28T14:35:59.449Z,45